Time;durP1;ratioP1;P1;durP2;ratioP2;P2;SDS_P1;SDS_P2;PMS_P1;PMS_P2;Temp;Humidity;BMP_temperature;BMP_pressure;BME280_temperature;BME280_humidity;BME280_pressure;Samples;Min_cycle;Max_cycle;Signal;HPM_P1;HPM_P2
2022/12/08 00:01:26;;;;;;;12.60;5.07;;;3.00;99.90;;;;;;5112032;28;20404;-65
2022/12/08 00:03:52;;;;;;;6.50;2.03;;;3.00;99.90;;;;;;5111630;28;20389;-65
2022/12/08 00:09:22;;;;;;;4.88;1.35;;;3.10;99.90;;;;;;5111594;28;20054;-65
2022/12/08 00:12:01;;;;;;;4.07;0.77;;;3.10;99.90;;;;;;5111400;28;20051;-64
2022/12/08 00:14:37;;;;;;;3.92;1.20;;;3.20;99.90;;;;;;5110277;28;20139;-64
2022/12/08 00:17:03;;;;;;;;;;;3.20;99.90;;;;;;5094630;28;20065;-64
2022/12/08 00:19:29;;;;;;;2.63;1.00;;;3.20;99.90;;;;;;5111397;28;20405;-64
2022/12/08 00:21:56;;;;;;;3.72;1.20;;;3.20;99.90;;;;;;5111567;28;20120;-64
2022/12/08 00:24:24;;;;;;;3.60;0.70;;;3.20;99.90;;;;;;5111377;28;20396;-64
2022/12/08 00:26:50;;;;;;;2.35;0.60;;;3.20;99.90;;;;;;5110922;28;20109;-64
2022/12/08 00:29:16;;;;;;;2.08;0.60;;;3.30;99.90;;;;;;5111466;28;20039;-64
2022/12/08 00:31:41;;;;;;;1.58;0.30;;;3.30;99.90;;;;;;5111027;28;20051;-64
2022/12/08 00:34:07;;;;;;;2.13;0.55;;;3.30;99.90;;;;;;5110785;28;20047;-64
2022/12/08 00:36:33;;;;;;;2.42;0.70;;;3.40;99.90;;;;;;5093440;28;20040;-65
2022/12/08 00:38:59;;;;;;;3.05;0.73;;;3.40;99.90;;;;;;5112389;28;20451;-64
2022/12/08 00:44:14;;;;;;;3.03;0.57;;;3.50;99.90;;;;;;5111844;28;20112;-64
2022/12/08 00:46:40;;;;;;;3.10;0.52;;;3.50;99.90;;;;;;5111218;28;20101;-64
2022/12/08 00:49:06;;;;;;;4.72;0.73;;;3.60;99.90;;;;;;5110644;28;20040;-64
2022/12/08 00:51:33;;;;;;;1.83;0.60;;;3.60;99.90;;;;;;5111631;28;20039;-64
2022/12/08 00:53:59;;;;;;;4.45;0.50;;;3.60;99.90;;;;;;5110730;28;20048;-64
2022/12/08 00:56:25;;;;;;;1.98;0.32;;;3.70;99.90;;;;;;5093853;28;20097;-64
2022/12/08 00:58:51;;;;;;;3.17;0.55;;;3.70;99.90;;;;;;5111321;28;20036;-64
2022/12/08 01:01:17;;;;;;;1.73;0.40;;;3.70;99.90;;;;;;5093992;28;20047;-64
2022/12/08 01:03:43;;;;;;;3.00;0.50;;;3.70;99.90;;;;;;5110229;28;20523;-64
2022/12/08 01:06:09;;;;;;;2.67;0.55;;;3.70;99.90;;;;;;5094119;28;20035;-64
2022/12/08 01:08:36;;;;;;;1.77;0.28;;;3.70;99.90;;;;;;5113343;28;20044;-64
2022/12/08 01:11:14;;;;;;;1.80;0.40;;;3.70;99.90;;;;;;5115235;28;20047;-64
2022/12/08 01:13:40;;;;;;;1.55;0.50;;;3.70;99.90;;;;;;5116113;28;20062;-64
2022/12/08 01:16:08;;;;;;;0.40;0.20;;;3.70;99.90;;;;;;5114649;28;20035;-64
2022/12/08 01:18:34;;;;;;;1.42;0.40;;;3.70;99.90;;;;;;5113848;28;20079;-64
2022/12/08 01:21:05;;;;;;;2.78;0.52;;;3.70;99.90;;;;;;5115767;28;20042;-64
2022/12/08 01:23:31;;;;;;;1.88;0.38;;;3.70;99.90;;;;;;5115976;28;20040;-64
2022/12/08 01:26:05;;;;;;;1.15;0.38;;;3.70;99.90;;;;;;5114789;27;20036;-64
2022/12/08 01:28:31;;;;;;;0.73;0.20;;;3.60;99.90;;;;;;5116024;28;20064;-64
2022/12/08 01:30:58;;;;;;;2.60;0.32;;;3.60;99.90;;;;;;5114609;28;20511;-64
2022/12/08 01:33:24;;;;;;;1.35;0.20;;;3.50;99.90;;;;;;5114706;28;20063;-64
2022/12/08 01:35:50;;;;;;;6.03;0.50;;;3.50;99.90;;;;;;5114075;28;20496;-65
2022/12/08 01:38:16;;;;;;;1.00;0.30;;;3.50;99.90;;;;;;5114240;28;20038;-65
2022/12/08 01:40:41;;;;;;;2.20;0.40;;;3.40;99.90;;;;;;5115031;28;20104;-65
2022/12/08 01:43:16;;;;;;;2.38;0.40;;;3.40;99.90;;;;;;5115253;28;20067;-65
2022/12/08 01:45:42;;;;;;;3.35;0.70;;;3.40;99.90;;;;;;5113957;28;20049;-65
2022/12/08 01:48:14;;;;;;;2.15;0.32;;;3.40;99.90;;;;;;5114492;28;20446;-65
2022/12/08 01:50:41;;;;;;;2.15;0.40;;;3.30;99.90;;;;;;5115449;28;20549;-65
2022/12/08 01:53:16;;;;;;;3.72;0.90;;;3.30;99.90;;;;;;5112937;28;20586;-65
2022/12/08 01:55:47;;;;;;;2.25;0.60;;;3.30;99.90;;;;;;5113893;28;20055;-65
2022/12/08 01:58:19;;;;;;;2.95;0.70;;;3.30;99.90;;;;;;5115296;28;20046;-65
2022/12/08 02:00:44;;;;;;;3.55;0.55;;;3.30;99.90;;;;;;5112728;28;20048;-65
2022/12/08 02:03:20;;;;;;;1.33;0.47;;;3.20;99.90;;;;;;5113684;28;20039;-65
2022/12/08 02:05:46;;;;;;;2.75;0.60;;;3.20;99.90;;;;;;5113802;28;20400;-65
2022/12/08 02:08:13;;;;;;;2.53;0.70;;;3.20;99.90;;;;;;5112963;28;20549;-65
2022/12/08 02:10:41;;;;;;;3.95;0.73;;;3.20;99.90;;;;;;5115246;28;20115;-65
2022/12/08 02:13:11;;;;;;;1.90;0.52;;;3.30;99.90;;;;;;5114583;28;20032;-65
2022/12/08 02:15:40;;;;;;;4.50;0.63;;;3.30;99.90;;;;;;5113972;28;20042;-65
2022/12/08 02:18:49;;;;;;;1.27;0.35;;;3.30;99.90;;;;;;5113270;28;20540;-65
2022/12/08 02:22:16;;;;;;;1.35;0.45;;;3.30;99.90;;;;;;5093215;28;20062;-65
2022/12/08 02:25:28;;;;;;;1.33;0.47;;;3.30;99.90;;;;;;5039404;28;20044;-65
2022/12/08 02:28:08;;;;;;;2.08;0.70;;;3.30;99.90;;;;;;5111053;28;20096;-65
2022/12/08 02:31:00;;;;;;;1.75;0.50;;;3.20;99.90;;;;;;5113587;28;20109;-65
2022/12/08 02:33:41;;;;;;;1.40;0.30;;;3.20;99.90;;;;;;5114518;27;20054;-65
2022/12/08 02:36:39;;;;;;;3.63;0.50;;;3.20;99.90;;;;;;5112605;28;20039;-65
2022/12/08 02:39:41;;;;;;;1.55;0.60;;;3.20;99.90;;;;;;5081785;28;20043;-65
2022/12/08 02:42:29;;;;;;;3.40;0.40;;;3.20;99.90;;;;;;5112355;28;20047;-65
2022/12/08 02:44:59;;;;;;;3.10;0.80;;;3.20;99.90;;;;;;5112945;28;20503;-65
2022/12/08 02:47:27;;;;;;;5.45;0.85;;;3.20;99.90;;;;;;5113871;28;20048;-65
2022/12/08 02:49:54;;;;;;;4.03;1.58;;;3.20;99.90;;;;;;5112150;28;20050;-66
2022/12/08 02:52:20;;;;;;;4.82;0.73;;;3.20;99.90;;;;;;5113985;28;20050;-66
2022/12/08 02:54:50;;;;;;;2.00;0.55;;;3.20;99.90;;;;;;5113903;28;20393;-65
2022/12/08 02:57:40;;;;;;;3.70;0.68;;;3.20;99.90;;;;;;5112204;28;20050;-65
2022/12/08 03:00:22;;;;;;;1.98;0.47;;;3.20;99.90;;;;;;5112155;28;20035;-66
2022/12/08 03:03:15;;;;;;;1.67;0.60;;;3.10;99.90;;;;;;5113823;28;20434;-66
2022/12/08 03:06:04;;;;;;;1.55;0.43;;;3.10;99.90;;;;;;5114008;27;20043;-66
2022/12/08 03:08:53;;;;;;;2.22;0.52;;;3.00;99.90;;;;;;5112665;28;20040;-66
2022/12/08 03:11:35;;;;;;;2.95;0.68;;;3.00;99.90;;;;;;5073732;28;20139;-65
2022/12/08 03:14:03;;;;;;;1.42;0.60;;;3.00;99.90;;;;;;5112050;28;20051;-65
2022/12/08 03:16:33;;;;;;;2.55;0.47;;;2.90;99.90;;;;;;5112452;28;20040;-65
2022/12/08 03:19:17;;;;;;;4.90;0.70;;;2.90;99.90;;;;;;5111548;28;20423;-65
2022/12/08 03:21:45;;;;;;;2.17;0.63;;;2.80;99.90;;;;;;5112444;28;20392;-66
2022/12/08 03:24:14;;;;;;;2.63;0.88;;;2.70;99.90;;;;;;5112270;28;20047;-66
2022/12/08 03:26:49;;;;;;;1.83;0.63;;;2.70;99.90;;;;;;5111863;28;20564;-66
2022/12/08 03:29:15;;;;;;;1.77;0.52;;;2.70;99.90;;;;;;5111813;28;20089;-66
2022/12/08 03:31:49;;;;;;;0.98;0.32;;;2.80;99.90;;;;;;5110913;28;20082;-66
2022/12/08 03:34:17;;;;;;;1.35;0.30;;;2.80;99.90;;;;;;5113243;28;20104;-66
2022/12/08 03:36:44;;;;;;;1.17;0.30;;;2.70;99.90;;;;;;5111858;28;20039;-66
2022/12/08 03:39:10;;;;;;;2.28;0.45;;;2.70;99.90;;;;;;5110948;28;20044;-66
2022/12/08 03:41:35;;;;;;;1.65;0.60;;;2.70;99.90;;;;;;5113229;28;20435;-66
2022/12/08 03:44:01;;;;;;;1.33;0.50;;;2.80;99.90;;;;;;5111736;28;20383;-66
2022/12/08 03:46:29;;;;;;;2.92;0.80;;;2.70;99.90;;;;;;5110898;28;20403;-66
2022/12/08 03:48:55;;;;;;;4.53;1.20;;;2.80;99.90;;;;;;5112971;28;20074;-66
2022/12/08 03:51:21;;;;;;;5.32;1.20;;;2.80;99.90;;;;;;5111637;28;20071;-66
2022/12/08 03:53:47;;;;;;;4.68;1.02;;;2.80;99.90;;;;;;5110821;28;20043;-66
2022/12/08 03:56:27;;;;;;;3.58;0.82;;;2.80;99.90;;;;;;5112740;28;20445;-66
2022/12/08 03:58:53;;;;;;;4.70;1.02;;;2.80;99.90;;;;;;5111585;28;20040;-66
2022/12/08 04:01:20;;;;;;;5.90;1.63;;;2.70;99.90;;;;;;5111790;28;20527;-66
2022/12/08 04:03:46;;;;;;;2.08;0.70;;;2.80;99.90;;;;;;5111377;28;20044;-66
2022/12/08 04:06:11;;;;;;;3.95;0.82;;;2.80;99.90;;;;;;5111353;28;20058;-66
2022/12/08 04:08:38;;;;;;;2.78;0.57;;;2.80;99.90;;;;;;5112057;28;20040;-66
2022/12/08 04:11:05;;;;;;;2.92;0.82;;;2.80;99.90;;;;;;5094301;28;20467;-66
2022/12/08 04:13:31;;;;;;;2.05;0.68;;;2.80;99.90;;;;;;5111956;28;20070;-66
2022/12/08 04:15:57;;;;;;;2.58;0.60;;;2.80;99.90;;;;;;5111348;28;20040;-66
2022/12/08 04:18:23;;;;;;;4.55;0.57;;;2.80;99.90;;;;;;5111458;28;20201;-66
2022/12/08 04:20:48;;;;;;;7.07;0.90;;;2.80;99.90;;;;;;5111715;28;20092;-66
2022/12/08 04:23:14;;;;;;;1.98;0.55;;;2.80;99.90;;;;;;5112298;28;20035;-66
2022/12/08 04:25:40;;;;;;;4.68;0.90;;;2.80;99.90;;;;;;5112622;28;20046;-66
2022/12/08 04:28:06;;;;;;;2.22;1.05;;;2.80;99.90;;;;;;5111284;28;20051;-66
2022/12/08 04:30:32;;;;;;;4.28;1.52;;;2.80;99.90;;;;;;5112680;28;20392;-66
2022/12/08 04:32:58;;;;;;;7.80;3.55;;;2.80;99.90;;;;;;5112190;28;20039;-66
2022/12/08 04:35:23;;;;;;;4.00;1.40;;;2.80;99.90;;;;;;5110257;28;20677;-66
2022/12/08 04:37:49;;;;;;;2.90;0.63;;;2.80;99.90;;;;;;5112304;28;20114;-66
2022/12/08 04:40:15;;;;;;;2.60;0.70;;;2.80;99.90;;;;;;5093862;28;20406;-67
2022/12/08 04:42:41;;;;;;;6.50;0.85;;;2.80;99.90;;;;;;5093510;28;20043;-66
2022/12/08 04:45:07;;;;;;;3.03;1.10;;;2.70;99.90;;;;;;5115065;28;20492;-66
2022/12/08 04:47:33;;;;;;;3.67;0.88;;;2.70;99.90;;;;;;5115582;28;20035;-66
2022/12/08 04:49:59;;;;;;;3.72;1.05;;;2.60;99.90;;;;;;5115571;28;20511;-66
2022/12/08 04:52:25;;;;;;;2.97;1.20;;;2.60;99.90;;;;;;5116357;28;20042;-66
2022/12/08 04:54:50;;;;;;;6.05;1.10;;;2.60;99.90;;;;;;5114746;28;20054;-66
2022/12/08 04:57:16;;;;;;;5.28;1.27;;;2.50;99.90;;;;;;5115579;28;20039;-66
2022/12/08 04:59:42;;;;;;;4.13;1.20;;;2.50;99.90;;;;;;5114945;28;20503;-67
2022/12/08 05:02:08;;;;;;;1.55;0.80;;;2.50;99.90;;;;;;5116398;28;20046;-66
2022/12/08 05:04:33;;;;;;;3.88;1.10;;;2.50;99.90;;;;;;5114501;28;20055;-66
2022/12/08 05:06:59;;;;;;;3.40;1.27;;;2.50;99.90;;;;;;5114669;28;20446;-66
2022/12/08 05:09:25;;;;;;;3.65;1.10;;;2.40;99.90;;;;;;5115719;28;20086;-66
2022/12/08 05:11:50;;;;;;;1.90;0.60;;;2.40;99.90;;;;;;5113917;28;20071;-66
2022/12/08 05:14:17;;;;;;;2.95;0.57;;;2.50;99.90;;;;;;5114698;28;20043;-66
2022/12/08 05:16:45;;;;;;;1.40;0.38;;;2.50;99.90;;;;;;5115915;28;20036;-65
2022/12/08 05:19:12;;;;;;;1.40;0.50;;;2.40;99.90;;;;;;5115536;28;20081;-65
2022/12/08 05:21:38;;;;;;;2.55;0.60;;;2.40;99.90;;;;;;5115906;28;20032;-65
2022/12/08 05:24:04;;;;;;;5.68;0.93;;;2.40;99.90;;;;;;5114824;28;20039;-65
2022/12/08 05:26:29;;;;;;;2.78;0.50;;;2.50;99.90;;;;;;5115934;27;20051;-65
2022/12/08 05:28:55;;;;;;;5.28;0.98;;;2.50;99.90;;;;;;5114448;28;20126;-65
2022/12/08 05:31:21;;;;;;;6.25;1.30;;;2.50;99.90;;;;;;5114798;28;20126;-65
2022/12/08 05:33:49;;;;;;;2.53;0.98;;;2.50;99.90;;;;;;5115307;28;20047;-65
2022/12/08 05:36:15;;;;;;;4.57;0.93;;;2.50;99.90;;;;;;5115451;28;20045;-65
2022/12/08 05:38:41;;;;;;;4.03;1.23;;;2.50;99.90;;;;;;5113830;28;20046;-65
2022/12/08 05:41:09;;;;;;;3.90;1.20;;;2.50;99.90;;;;;;5114184;28;20047;-65
2022/12/08 05:43:35;;;;;;;2.25;0.80;;;2.50;99.90;;;;;;5115658;28;20392;-65
2022/12/08 05:46:01;;;;;;;1.63;0.60;;;2.50;99.90;;;;;;5113218;28;20048;-65
2022/12/08 05:48:26;;;;;;;2.65;0.80;;;2.50;99.90;;;;;;5114260;28;20050;-65
2022/12/08 05:50:52;;;;;;;4.40;0.75;;;2.50;99.90;;;;;;5113890;28;20476;-65
2022/12/08 05:53:19;;;;;;;2.63;0.85;;;2.50;99.90;;;;;;5112891;28;20071;-65
2022/12/08 05:55:45;;;;;;;3.97;1.13;;;2.50;99.90;;;;;;5114817;28;20038;-65
2022/12/08 05:58:13;;;;;;;4.72;0.70;;;2.50;99.90;;;;;;5115140;28;20187;-65
2022/12/08 06:00:40;;;;;;;5.40;1.35;;;2.50;99.90;;;;;;5113486;28;20039;-66
2022/12/08 06:03:05;;;;;;;3.78;1.00;;;2.50;99.90;;;;;;5113751;28;20129;-65
2022/12/08 06:05:33;;;;;;;4.00;0.57;;;2.50;99.90;;;;;;5115091;28;20032;-66
2022/12/08 06:07:58;;;;;;;4.35;0.90;;;2.60;99.90;;;;;;5113990;28;20062;-66
2022/12/08 06:10:24;;;;;;;5.75;1.30;;;2.60;99.90;;;;;;5114766;28;20472;-65
2022/12/08 06:12:50;;;;;;;6.07;0.77;;;2.60;99.90;;;;;;5113423;28;20067;-65
2022/12/08 06:15:15;;;;;;;6.30;1.17;;;2.60;99.90;;;;;;5113868;28;20035;-65
2022/12/08 06:17:41;;;;;;;4.20;1.10;;;2.60;99.90;;;;;;5114815;28;20481;-65
2022/12/08 06:20:07;;;;;;;2.97;1.10;;;2.60;99.90;;;;;;5113987;28;20480;-66
2022/12/08 06:22:34;;;;;;;6.53;1.25;;;2.60;99.90;;;;;;5113429;28;20044;-66
2022/12/08 06:24:59;;;;;;;3.95;1.27;;;2.50;99.90;;;;;;5114814;28;20036;-66
2022/12/08 06:27:25;;;;;;;3.95;1.10;;;2.50;99.90;;;;;;5114046;28;20869;-66
2022/12/08 06:29:51;;;;;;;4.47;1.10;;;2.50;99.90;;;;;;5114633;28;20039;-65
2022/12/08 06:32:17;;;;;;;4.07;1.70;;;2.50;99.90;;;;;;5113249;28;20040;-65
2022/12/08 06:34:42;;;;;;;6.15;2.47;;;2.40;99.90;;;;;;5112077;28;20039;-66
2022/12/08 06:37:08;;;;;;;6.68;2.10;;;2.30;99.90;;;;;;5113033;28;20093;-65
2022/12/08 06:39:34;;;;;;;6.53;3.30;;;2.20;99.90;;;;;;5113207;28;20091;-65
2022/12/08 06:44:44;;;;;;;8.32;2.97;;;2.20;99.90;;;;;;5112819;28;20082;-66
2022/12/08 06:47:10;;;;;;;5.38;2.17;;;2.10;99.90;;;;;;5113846;28;20085;-66
2022/12/08 06:49:35;;;;;;;7.25;2.97;;;2.00;99.90;;;;;;5112373;28;20039;-65
2022/12/08 06:52:01;;;;;;;6.03;2.10;;;2.00;99.90;;;;;;5113903;28;20458;-66
2022/12/08 06:54:27;;;;;;;7.32;2.05;;;1.90;99.90;;;;;;5108020;28;20445;-65
2022/12/08 06:56:52;;;;;;;5.90;1.95;;;1.80;99.90;;;;;;5113167;28;20031;-65
2022/12/08 06:59:18;;;;;;;5.28;1.60;;;1.80;99.90;;;;;;5109004;28;20120;-66
2022/12/08 07:01:45;;;;;;;5.55;1.50;;;1.80;99.90;;;;;;5093451;28;20031;-65
2022/12/08 07:04:10;;;;;;;6.75;1.83;;;1.80;99.90;;;;;;5091645;28;20056;-65
2022/12/08 07:06:36;;;;;;;8.00;2.13;;;1.70;99.90;;;;;;5091497;28;20047;-65
2022/12/08 07:09:02;;;;;;;4.60;2.17;;;1.70;99.90;;;;;;5093350;28;20039;-66
2022/12/08 07:11:28;;;;;;;7.03;2.25;;;1.60;99.90;;;;;;5092379;28;20071;-66
2022/12/08 07:13:57;;;;;;;7.60;2.20;;;1.60;99.90;;;;;;5091755;28;20469;-66
2022/12/08 07:16:23;;;;;;;5.47;1.58;;;1.60;99.90;;;;;;5109896;28;20106;-66
2022/12/08 07:18:49;;;;;;;8.32;2.67;;;1.60;99.90;;;;;;5112202;28;20039;-66
2022/12/08 07:21:16;;;;;;;4.32;1.95;;;1.60;99.90;;;;;;5091271;28;20066;-66
2022/12/08 07:23:45;;;;;;;4.57;2.03;;;1.50;99.90;;;;;;5109729;28;20566;-66
2022/12/08 07:26:11;;;;;;;7.25;1.75;;;1.50;99.90;;;;;;5110518;28;20051;-66
2022/12/08 07:28:38;;;;;;;10.57;3.30;;;1.50;99.90;;;;;;5109697;28;20039;-66
2022/12/08 07:31:05;;;;;;;5.22;2.08;;;1.50;99.90;;;;;;5091064;28;20511;-66
2022/12/08 07:33:32;;;;;;;5.45;2.38;;;1.40;99.90;;;;;;5107402;28;20054;-65
2022/12/08 07:36:03;;;;;;;6.82;2.42;;;1.40;99.90;;;;;;5107715;28;20061;-66
2022/12/08 07:38:29;;;;;;;8.27;3.08;;;1.40;99.90;;;;;;5092032;28;20085;-65
2022/12/08 07:40:54;;;;;;;7.15;3.13;;;1.30;99.90;;;;;;5110821;28;20468;-65
2022/12/08 07:43:21;;;;;;;5.95;3.05;;;1.30;99.90;;;;;;5110316;28;20042;-65
2022/12/08 07:45:47;;;;;;;9.20;3.45;;;1.20;99.90;;;;;;5091880;28;20128;-65
2022/12/08 07:48:13;;;;;;;6.95;3.25;;;1.20;99.90;;;;;;5110580;28;20583;-65
2022/12/08 07:50:39;;;;;;;10.52;2.90;;;1.30;99.90;;;;;;5110889;28;20123;-66
2022/12/08 07:53:05;;;;;;;7.63;3.05;;;1.20;99.90;;;;;;5109522;28;20067;-66
2022/12/08 07:56:21;;;;;;;6.78;3.40;;;1.30;99.90;;;;;;5091512;28;20100;-65
2022/12/08 07:58:47;;;;;;;9.38;3.60;;;1.30;99.90;;;;;;5104698;28;20041;-66
2022/12/08 08:01:22;;;;;;;13.10;4.60;;;1.20;99.90;;;;;;5109206;28;20040;-66
2022/12/08 08:03:47;;;;;;;16.98;7.20;;;1.30;99.90;;;;;;5110489;28;20040;-66
2022/12/08 08:06:13;;;;;;;14.30;6.45;;;1.30;99.90;;;;;;5109909;28;20553;-66
2022/12/08 08:08:39;;;;;;;13.63;6.47;;;1.30;99.90;;;;;;5109340;28;20047;-66
2022/12/08 08:11:06;;;;;;;11.57;4.18;;;1.30;99.90;;;;;;5091938;28;20107;-66
2022/12/08 08:13:32;;;;;;;8.50;3.90;;;1.30;99.90;;;;;;5109475;28;20123;-66
2022/12/08 08:16:05;;;;;;;9.68;3.40;;;1.30;99.90;;;;;;5108692;28;20497;-66
2022/12/08 08:18:31;;;;;;;9.15;3.70;;;1.40;99.90;;;;;;5110419;28;20054;-66
2022/12/08 08:20:57;;;;;;;10.95;4.00;;;1.40;99.90;;;;;;5090796;28;20043;-66
2022/12/08 08:23:22;;;;;;;9.43;4.15;;;1.40;99.90;;;;;;5110984;28;20035;-66
2022/12/08 08:25:48;;;;;;;9.50;4.72;;;1.50;99.90;;;;;;5110785;28;20369;-65
2022/12/08 08:28:14;;;;;;;15.73;4.15;;;1.50;99.90;;;;;;5092722;28;20385;-66
2022/12/08 08:30:40;;;;;;;45.67;7.68;;;1.50;99.90;;;;;;5111268;28;20114;-65
2022/12/08 08:33:06;;;;;;;38.30;5.35;;;1.50;99.90;;;;;;5094337;28;20036;-66
2022/12/08 08:35:33;;;;;;;25.13;5.75;;;1.50;99.90;;;;;;5111469;28;20040;-66
2022/12/08 08:38:00;;;;;;;13.00;3.22;;;1.40;99.90;;;;;;5112435;28;20032;-65
2022/12/08 08:40:26;;;;;;;14.45;3.30;;;1.50;99.90;;;;;;5112271;28;20042;-66
2022/12/08 08:42:51;;;;;;;16.95;3.85;;;1.40;99.90;;;;;;5110152;28;20027;-66
2022/12/08 08:45:17;;;;;;;17.67;5.20;;;1.50;99.90;;;;;;5110640;28;20055;-66
2022/12/08 08:47:42;;;;;;;40.65;11.35;;;1.50;99.90;;;;;;5111734;28;20035;-66
2022/12/08 08:50:09;;;;;;;46.58;10.27;;;1.60;99.90;;;;;;5099991;28;20044;-67
2022/12/08 08:52:34;;;;;;;40.58;8.50;;;1.70;99.90;;;;;;5110691;28;20074;-67
2022/12/08 08:55:01;;;;;;;29.77;8.27;;;1.70;99.90;;;;;;5109378;28;20073;-68
2022/12/08 08:57:27;;;;;;;24.10;5.60;;;1.80;99.90;;;;;;5093379;28;20035;-67
2022/12/08 08:59:53;;;;;;;13.88;4.25;;;1.80;99.90;;;;;;5099037;28;20047;-67
2022/12/08 09:02:19;;;;;;;16.83;3.38;;;1.90;99.90;;;;;;5091156;28;20043;-66
2022/12/08 09:04:45;;;;;;;10.73;3.28;;;2.00;99.90;;;;;;5111558;28;20047;-66
2022/12/08 09:07:11;;;;;;;9.20;2.97;;;2.00;99.90;;;;;;5109330;28;20045;-66
2022/12/08 09:09:38;;;;;;;17.75;2.72;;;2.00;99.90;;;;;;5101537;28;20040;-66
2022/12/08 09:12:04;;;;;;;10.55;3.65;;;2.10;99.90;;;;;;5089749;28;20042;-66
2022/12/08 09:14:29;;;;;;;7.55;2.15;;;2.10;99.90;;;;;;5080315;28;20032;-66
2022/12/08 09:16:55;;;;;;;12.48;2.55;;;2.10;99.90;;;;;;5110412;28;20035;-66
2022/12/08 09:19:21;;;;;;;18.67;3.35;;;2.10;99.90;;;;;;5110982;28;20453;-66
2022/12/08 09:21:46;;;;;;;10.10;2.67;;;2.20;99.90;;;;;;5111855;28;20461;-66
2022/12/08 09:24:14;;;;;;;7.70;2.90;;;2.20;99.90;;;;;;5110625;28;20036;-66
2022/12/08 09:26:42;;;;;;;11.30;2.90;;;2.20;99.90;;;;;;5110466;28;20450;-66
2022/12/08 09:29:09;;;;;;;7.53;2.60;;;2.30;99.90;;;;;;5109971;28;20484;-66
2022/12/08 09:31:35;;;;;;;8.48;2.67;;;2.30;99.90;;;;;;5113285;28;20541;-66
2022/12/08 09:34:01;;;;;;;7.57;3.40;;;2.40;99.90;;;;;;5113887;28;20476;-67
2022/12/08 09:36:26;;;;;;;7.07;3.25;;;2.40;99.90;;;;;;5096240;28;20046;-66
2022/12/08 09:38:53;;;;;;;12.57;3.30;;;2.50;99.90;;;;;;5114466;28;20074;-66
2022/12/08 09:41:19;;;;;;;9.80;3.28;;;2.60;99.90;;;;;;5113290;28;20556;-69
2022/12/08 09:44:12;;;;;;;8.40;3.00;;;2.60;99.90;;;;;;5115004;28;20036;-64
2022/12/08 09:46:38;;;;;;;24.02;11.05;;;2.70;99.90;;;;;;5114166;28;20043;-64
2022/12/08 09:49:10;;;;;;;26.85;13.63;;;2.70;99.90;;;;;;5114388;27;20043;-62
2022/12/08 09:51:39;;;;;;;29.33;14.50;;;2.80;99.90;;;;;;5114811;28;20028;-65
2022/12/08 09:54:11;;;;;;;17.80;9.30;;;2.80;99.90;;;;;;5113247;28;20412;-64
2022/12/08 09:56:38;;;;;;;136.25;46.30;;;2.80;99.90;;;;;;5114135;28;20039;-65
2022/12/08 09:59:23;;;;;;;96.80;36.38;;;2.90;99.90;;;;;;5114042;28;20081;-65
2022/12/08 10:01:50;;;;;;;69.93;23.23;;;2.90;99.90;;;;;;5114033;28;20084;-65
2022/12/08 10:04:25;;;;;;;87.47;29.88;;;3.00;99.90;;;;;;5113672;28;20044;-65
2022/12/08 10:06:54;;;;;;;285.15;92.15;;;3.00;99.90;;;;;;5113250;28;20395;-65
2022/12/08 10:09:40;;;;;;;199.52;58.95;;;3.10;99.90;;;;;;5096536;28;20035;-65
2022/12/08 10:12:08;;;;;;;;;;;3.10;99.90;;;;;;5113837;28;20114;-65
2022/12/08 10:14:42;;;;;;;218.07;65.82;;;3.20;99.90;;;;;;5095938;28;19920;-66
2022/12/08 10:17:23;;;;;;;29.83;15.10;;;3.30;99.90;;;;;;5113693;28;20480;-66
2022/12/08 10:19:58;;;;;;;14.68;6.03;;;3.40;99.90;;;;;;5112801;28;20040;-64
2022/12/08 10:22:29;;;;;;;14.20;4.70;;;3.50;99.90;;;;;;5113258;28;20100;-69
2022/12/08 10:25:20;;;;;;;14.35;5.78;;;3.40;99.90;;;;;;5114436;28;20330;-69
2022/12/08 10:27:51;;;;;;;10.63;4.05;;;3.40;99.90;;;;;;5114342;28;20083;-77
2022/12/08 10:30:18;;;;;;;13.23;6.10;;;3.50;99.90;;;;;;5113399;28;20100;-77
2022/12/08 10:32:46;;;;;;;12.25;5.97;;;3.60;99.90;;;;;;5113262;28;20075;-77
2022/12/08 10:35:15;;;;;;;7.55;3.10;;;3.70;99.90;;;;;;5113349;28;20039;-77
2022/12/08 10:37:40;;;;;;;11.73;4.70;;;3.90;99.90;;;;;;5096454;28;20039;-77
2022/12/08 10:40:16;;;;;;;22.23;11.10;;;4.00;99.90;;;;;;5113012;28;20035;-75
2022/12/08 10:42:47;;;;;;;9.32;4.75;;;4.10;99.90;;;;;;5112879;28;20039;-73
2022/12/08 10:45:26;;;;;;;6.18;1.73;;;4.20;99.90;;;;;;5113459;28;20043;-74
2022/12/08 10:47:57;;;;;;;4.45;0.95;;;4.20;99.90;;;;;;5112618;28;20039;-76
2022/12/08 10:50:29;;;;;;;2.95;0.90;;;4.30;99.90;;;;;;5114043;28;20537;-78
2022/12/08 10:53:11;;;;;;;10.07;0.90;;;4.40;99.90;;;;;;5112933;28;20053;-78
2022/12/08 10:55:45;;;;;;;1.40;0.40;;;4.40;99.90;;;;;;5092790;28;20079;-78
2022/12/08 10:58:26;;;;;;;2.55;0.38;;;4.50;99.90;;;;;;5092733;28;20051;-66
2022/12/08 11:00:59;;;;;;;5.22;0.47;;;4.40;99.90;;;;;;5110709;28;20093;-66
2022/12/08 11:03:57;;;;;;;3.58;1.13;;;4.30;99.90;;;;;;5094866;28;20045;-66
2022/12/08 11:06:27;;;;;;;4.32;0.80;;;4.10;99.90;;;;;;5112963;28;20039;-65
2022/12/08 11:09:20;;;;;;;4.95;1.40;;;3.90;99.90;;;;;;5113003;28;20096;-65
2022/12/08 11:11:58;;;;;;;2.08;0.52;;;3.80;99.90;;;;;;5112012;28;20032;-64
2022/12/08 11:14:28;;;;;;;1.67;0.40;;;3.70;99.90;;;;;;5113829;28;20044;-63
2022/12/08 11:17:08;;;;;;;11.07;3.47;;;3.60;99.90;;;;;;5111805;28;20431;-63
2022/12/08 11:20:02;;;;;;;6.38;1.15;;;3.50;99.90;;;;;;5114277;28;20119;-64
2022/12/08 11:22:40;;;;;;;19.67;8.70;;;3.50;99.90;;;;;;5090053;28;20051;-63
2022/12/08 11:25:19;;;;;;;22.95;11.75;;;3.50;99.90;;;;;;5113155;28;20471;-65
2022/12/08 11:27:49;;;;;;;13.95;6.88;;;3.70;99.90;;;;;;5111406;28;20130;-64
2022/12/08 11:30:23;;;;;;;9.63;2.92;;;3.70;99.90;;;;;;5111773;28;20035;-63
2022/12/08 11:33:05;;;;;;;5.13;1.60;;;3.80;99.90;;;;;;5113076;28;20031;-64
2022/12/08 11:35:43;;;;;;;3.30;0.80;;;3.90;99.90;;;;;;5113135;28;20039;-63
2022/12/08 11:38:14;;;;;;;1.83;0.63;;;4.00;99.90;;;;;;5111983;28;20093;-63
2022/12/08 11:40:43;;;;;;;3.25;0.90;;;4.10;99.90;;;;;;5095110;28;20053;-63
2022/12/08 11:43:20;;;;;;;4.25;1.10;;;4.20;99.90;;;;;;5113481;28;20040;-63
2022/12/08 11:45:53;;;;;;;3.15;1.52;;;4.20;99.90;;;;;;5112275;28;20038;-63
2022/12/08 11:48:46;;;;;;;3.60;1.33;;;4.30;99.90;;;;;;5111081;28;20119;-63
2022/12/08 11:51:33;;;;;;;3.42;1.20;;;4.30;99.90;;;;;;5099879;28;20051;-63
2022/12/08 11:54:17;;;;;;;4.00;1.40;;;4.40;99.90;;;;;;5111318;28;20118;-63
2022/12/08 11:56:55;;;;;;;2.42;0.90;;;4.40;99.90;;;;;;5111525;28;20121;-63
2022/12/08 11:59:33;;;;;;;2.95;1.00;;;4.50;99.90;;;;;;5111354;28;20086;-63
2022/12/08 12:02:00;;;;;;;2.72;0.90;;;4.50;99.90;;;;;;5094582;28;20061;-63
2022/12/08 12:04:39;;;;;;;1.80;0.43;;;4.60;99.90;;;;;;5111496;28;20043;-63
2022/12/08 12:07:39;;;;;;;1.25;0.50;;;4.60;99.90;;;;;;5110519;28;20078;-63
2022/12/08 12:10:21;;;;;;;2.88;0.80;;;4.70;99.90;;;;;;5090741;28;20123;-63
2022/12/08 12:13:22;;;;;;;13.85;8.90;;;4.70;99.90;;;;;;5092974;28;20051;-62
2022/12/08 12:16:30;;;;;;;2.88;0.80;;;4.60;99.90;;;;;;5107704;28;20047;-63
2022/12/08 12:19:00;;;;;;;5.13;1.10;;;4.50;99.90;;;;;;5106200;28;20044;-63
2022/12/08 12:21:55;;;;;;;3.15;0.90;;;4.40;99.90;;;;;;5112823;28;20039;-63
2022/12/08 12:24:30;;;;;;;4.88;0.80;;;4.40;99.90;;;;;;5095269;28;20070;-64
2022/12/08 12:27:03;;;;;;;2.87;0.67;;;4.40;99.90;;;;;;5111891;28;20104;-64
2022/12/08 12:29:35;;;;;;;3.60;0.88;;;4.40;99.90;;;;;;5106300;28;20048;-64
2022/12/08 12:32:07;;;;;;;3.40;1.40;;;4.40;99.90;;;;;;5108405;28;20036;-64
2022/12/08 12:34:53;;;;;;;2.47;0.80;;;4.30;99.90;;;;;;5107951;28;20140;-64
2022/12/08 12:37:41;;;;;;;4.93;1.02;;;4.20;99.90;;;;;;5094426;28;20035;-64
2022/12/08 12:40:17;;;;;;;4.22;1.35;;;4.20;99.90;;;;;;5105980;28;20115;-64
2022/12/08 12:42:47;;;;;;;6.43;1.10;;;4.10;99.90;;;;;;5095867;28;20088;-65
2022/12/08 12:45:16;;;;;;;2.75;0.90;;;4.10;99.90;;;;;;5100617;28;20043;-64
2022/12/08 12:47:55;;;;;;;2.85;0.70;;;4.10;99.90;;;;;;5107159;28;20043;-64
2022/12/08 12:50:33;;;;;;;1.92;0.50;;;4.10;99.90;;;;;;5108328;28;20476;-64
2022/12/08 12:53:15;;;;;;;0.98;0.52;;;4.10;99.90;;;;;;5101022;28;20135;-64
2022/12/08 12:55:44;;;;;;;1.50;0.57;;;4.10;99.90;;;;;;5107316;28;20048;-65
2022/12/08 12:58:28;;;;;;;11.20;6.97;;;4.20;99.90;;;;;;5098268;28;20039;-64
2022/12/08 13:01:09;;;;;;;10.07;5.82;;;4.20;99.90;;;;;;5091687;28;20052;-64
2022/12/08 13:03:44;;;;;;;12.30;5.57;;;4.20;99.90;;;;;;5106131;28;20058;-64
2022/12/08 13:06:12;;;;;;;9.95;4.78;;;4.20;99.90;;;;;;5109927;28;20085;-64
2022/12/08 13:08:41;;;;;;;10.50;5.50;;;4.20;99.90;;;;;;5110552;28;20048;-64
2022/12/08 13:11:09;;;;;;;7.28;2.80;;;4.20;99.90;;;;;;5111478;28;20047;-64
2022/12/08 13:13:37;;;;;;;3.65;1.65;;;4.20;99.90;;;;;;5111118;28;20472;-64
2022/12/08 13:16:08;;;;;;;2.75;0.90;;;4.30;99.90;;;;;;5110029;28;20395;-64
2022/12/08 13:18:35;;;;;;;4.78;1.83;;;4.30;99.90;;;;;;5111535;28;20035;-62
2022/12/08 13:21:07;;;;;;;7.80;3.67;;;4.20;99.90;;;;;;5110652;28;20378;-63
2022/12/08 13:23:36;;;;;;;5.85;2.40;;;4.30;99.90;;;;;;5102075;28;20035;-62